sensor_id;sensor_type;location;lat;lon;timestamp;P1;durP1;ratioP1;P2;durP2;ratioP2
21639;SDS011;10981;45.462;10.974;2024-03-23T00:54:35;38.28;;;18.17;;
21639;SDS011;10981;45.462;10.974;2024-03-23T00:57:02;38.30;;;17.98;;
21639;SDS011;10981;45.462;10.974;2024-03-23T00:59:29;39.42;;;19.15;;
21639;SDS011;10981;45.462;10.974;2024-03-23T01:01:57;42.28;;;19.23;;
21639;SDS011;10981;45.462;10.974;2024-03-23T01:04:24;42.50;;;18.73;;
21639;SDS011;10981;45.462;10.974;2024-03-23T01:06:51;36.42;;;18.88;;
21639;SDS011;10981;45.462;10.974;2024-03-23T01:09:21;42.83;;;19.45;;
21639;SDS011;10981;45.462;10.974;2024-03-23T01:11:48;38.88;;;18.08;;
21639;SDS011;10981;45.462;10.974;2024-03-23T01:14:16;38.50;;;17.75;;
21639;SDS011;10981;45.462;10.974;2024-03-23T01:16:43;36.47;;;19.67;;
21639;SDS011;10981;45.462;10.974;2024-03-23T01:19:10;37.97;;;18.45;;
21639;SDS011;10981;45.462;10.974;2024-03-23T01:21:37;39.30;;;18.13;;
21639;SDS011;10981;45.462;10.974;2024-03-23T01:24:05;41.47;;;19.23;;
21639;SDS011;10981;45.462;10.974;2024-03-23T01:26:32;36.90;;;17.88;;
21639;SDS011;10981;45.462;10.974;2024-03-23T01:29:00;37.70;;;18.85;;
21639;SDS011;10981;45.462;10.974;2024-03-23T01:31:27;44.38;;;19.63;;
21639;SDS011;10981;45.462;10.974;2024-03-23T01:33:54;38.30;;;19.20;;
21639;SDS011;10981;45.462;10.974;2024-03-23T01:36:21;40.88;;;18.88;;
21639;SDS011;10981;45.462;10.974;2024-03-23T01:38:48;42.60;;;20.15;;
21639;SDS011;10981;45.462;10.974;2024-03-23T01:41:16;45.35;;;21.15;;
21639;SDS011;10981;45.462;10.974;2024-03-23T01:43:44;40.45;;;20.38;;
21639;SDS011;10981;45.462;10.974;2024-03-23T01:46:11;45.78;;;21.75;;
21639;SDS011;10981;45.462;10.974;2024-03-23T01:48:38;40.22;;;18.88;;
21639;SDS011;10981;45.462;10.974;2024-03-23T01:51:06;39.20;;;20.05;;
21639;SDS011;10981;45.462;10.974;2024-03-23T01:53:33;37.47;;;19.70;;
21639;SDS011;10981;45.462;10.974;2024-03-23T01:56:01;40.72;;;19.10;;
21639;SDS011;10981;45.462;10.974;2024-03-23T01:58:29;34.55;;;18.02;;
21639;SDS011;10981;45.462;10.974;2024-03-23T02:00:57;35.95;;;18.17;;
21639;SDS011;10981;45.462;10.974;2024-03-23T02:03:25;42.80;;;19.85;;
21639;SDS011;10981;45.462;10.974;2024-03-23T02:05:53;43.55;;;19.92;;
21639;SDS011;10981;45.462;10.974;2024-03-23T02:08:22;39.10;;;19.35;;
21639;SDS011;10981;45.462;10.974;2024-03-23T02:10:50;37.42;;;18.38;;
21639;SDS011;10981;45.462;10.974;2024-03-23T02:13:17;43.30;;;20.67;;
21639;SDS011;10981;45.462;10.974;2024-03-23T02:15:45;35.40;;;18.65;;
21639;SDS011;10981;45.462;10.974;2024-03-23T02:18:12;38.92;;;18.65;;
21639;SDS011;10981;45.462;10.974;2024-03-23T02:20:40;41.20;;;20.45;;
21639;SDS011;10981;45.462;10.974;2024-03-23T02:23:16;38.00;;;19.45;;
21639;SDS011;10981;45.462;10.974;2024-03-23T02:25:44;40.45;;;21.13;;
21639;SDS011;10981;45.462;10.974;2024-03-23T02:28:11;39.40;;;19.38;;
21639;SDS011;10981;45.462;10.974;2024-03-23T02:30:39;48.33;;;21.73;;
21639;SDS011;10981;45.462;10.974;2024-03-23T02:33:06;44.78;;;20.83;;
21639;SDS011;10981;45.462;10.974;2024-03-23T02:35:33;41.10;;;20.67;;
21639;SDS011;10981;45.462;10.974;2024-03-23T02:38:01;37.25;;;19.63;;
21639;SDS011;10981;45.462;10.974;2024-03-23T02:40:28;40.63;;;19.08;;
21639;SDS011;10981;45.462;10.974;2024-03-23T02:42:55;40.17;;;19.95;;
21639;SDS011;10981;45.462;10.974;2024-03-23T02:45:23;42.13;;;19.38;;
21639;SDS011;10981;45.462;10.974;2024-03-23T02:47:50;41.47;;;20.13;;
21639;SDS011;10981;45.462;10.974;2024-03-23T02:50:21;43.72;;;19.58;;
21639;SDS011;10981;45.462;10.974;2024-03-23T02:52:48;37.20;;;19.00;;
21639;SDS011;10981;45.462;10.974;2024-03-23T02:55:15;45.05;;;19.25;;
21639;SDS011;10981;45.462;10.974;2024-03-23T02:57:43;39.80;;;19.25;;
21639;SDS011;10981;45.462;10.974;2024-03-23T03:00:10;42.75;;;20.63;;
21639;SDS011;10981;45.462;10.974;2024-03-23T03:02:38;41.55;;;19.92;;
21639;SDS011;10981;45.462;10.974;2024-03-23T03:05:06;45.10;;;19.48;;
21639;SDS011;10981;45.462;10.974;2024-03-23T03:07:35;41.85;;;19.67;;
21639;SDS011;10981;45.462;10.974;2024-03-23T03:10:04;40.60;;;19.63;;
21639;SDS011;10981;45.462;10.974;2024-03-23T03:12:32;45.65;;;21.17;;
21639;SDS011;10981;45.462;10.974;2024-03-23T03:14:59;41.78;;;20.92;;
21639;SDS011;10981;45.462;10.974;2024-03-23T03:17:26;41.50;;;20.00;;
21639;SDS011;10981;45.462;10.974;2024-03-23T03:19:54;39.42;;;19.52;;
21639;SDS011;10981;45.462;10.974;2024-03-23T03:22:22;37.30;;;19.17;;
21639;SDS011;10981;45.462;10.974;2024-03-23T03:24:50;37.92;;;18.75;;
21639;SDS011;10981;45.462;10.974;2024-03-23T03:27:17;39.28;;;19.40;;
21639;SDS011;10981;45.462;10.974;2024-03-23T03:29:44;39.38;;;19.20;;
21639;SDS011;10981;45.462;10.974;2024-03-23T03:32:11;37.58;;;18.13;;
21639;SDS011;10981;45.462;10.974;2024-03-23T03:34:38;43.33;;;20.25;;
21639;SDS011;10981;45.462;10.974;2024-03-23T03:37:06;42.70;;;19.35;;
21639;SDS011;10981;45.462;10.974;2024-03-23T03:39:33;35.30;;;19.20;;
21639;SDS011;10981;45.462;10.974;2024-03-23T03:42:00;39.78;;;19.27;;
21639;SDS011;10981;45.462;10.974;2024-03-23T03:44:32;37.40;;;18.33;;
21639;SDS011;10981;45.462;10.974;2024-03-23T03:47:00;43.40;;;20.27;;
21639;SDS011;10981;45.462;10.974;2024-03-23T03:49:27;39.33;;;19.35;;
21639;SDS011;10981;45.462;10.974;2024-03-23T03:51:54;36.45;;;18.70;;
21639;SDS011;10981;45.462;10.974;2024-03-23T03:54:22;38.17;;;19.05;;
21639;SDS011;10981;45.462;10.974;2024-03-23T03:56:49;37.30;;;18.15;;
21639;SDS011;10981;45.462;10.974;2024-03-23T03:59:17;37.47;;;17.77;;
21639;SDS011;10981;45.462;10.974;2024-03-23T04:01:44;34.92;;;17.45;;
21639;SDS011;10981;45.462;10.974;2024-03-23T04:04:11;37.50;;;18.38;;
21639;SDS011;10981;45.462;10.974;2024-03-23T04:06:40;37.60;;;18.42;;
21639;SDS011;10981;45.462;10.974;2024-03-23T04:09:07;33.88;;;17.35;;
21639;SDS011;10981;45.462;10.974;2024-03-23T04:11:34;38.40;;;18.42;;
21639;SDS011;10981;45.462;10.974;2024-03-23T04:14:01;39.83;;;19.42;;
21639;SDS011;10981;45.462;10.974;2024-03-23T04:16:29;40.45;;;17.90;;
21639;SDS011;10981;45.462;10.974;2024-03-23T04:19:01;38.33;;;19.27;;
21639;SDS011;10981;45.462;10.974;2024-03-23T04:21:28;40.95;;;18.67;;
21639;SDS011;10981;45.462;10.974;2024-03-23T04:23:55;42.70;;;19.08;;
21639;SDS011;10981;45.462;10.974;2024-03-23T04:26:22;36.65;;;19.08;;
21639;SDS011;10981;45.462;10.974;2024-03-23T04:28:50;37.22;;;18.17;;
21639;SDS011;10981;45.462;10.974;2024-03-23T04:31:17;35.83;;;18.38;;
21639;SDS011;10981;45.462;10.974;2024-03-23T04:33:45;44.72;;;20.20;;
21639;SDS011;10981;45.462;10.974;2024-03-23T04:36:12;42.80;;;19.08;;
21639;SDS011;10981;45.462;10.974;2024-03-23T04:38:40;38.45;;;17.70;;
21639;SDS011;10981;45.462;10.974;2024-03-23T04:41:07;45.17;;;19.55;;
21639;SDS011;10981;45.462;10.974;2024-03-23T04:43:34;42.47;;;19.13;;
21639;SDS011;10981;45.462;10.974;2024-03-23T04:46:02;42.92;;;19.02;;
21639;SDS011;10981;45.462;10.974;2024-03-23T04:48:30;39.55;;;18.30;;
21639;SDS011;10981;45.462;10.974;2024-03-23T04:50:57;38.97;;;18.52;;
21639;SDS011;10981;45.462;10.974;2024-03-23T04:53:24;41.25;;;19.75;;
21639;SDS011;10981;45.462;10.974;2024-03-23T04:55:55;41.15;;;19.20;;
21639;SDS011;10981;45.462;10.974;2024-03-23T04:58:22;38.42;;;19.50;;
21639;SDS011;10981;45.462;10.974;2024-03-23T05:00:56;35.50;;;17.20;;
21639;SDS011;10981;45.462;10.974;2024-03-23T05:03:24;38.38;;;18.23;;
21639;SDS011;10981;45.462;10.974;2024-03-23T05:05:51;35.92;;;18.40;;
21639;SDS011;10981;45.462;10.974;2024-03-23T05:08:19;45.30;;;19.38;;
21639;SDS011;10981;45.462;10.974;2024-03-23T05:10:46;41.60;;;19.73;;
21639;SDS011;10981;45.462;10.974;2024-03-23T05:13:13;47.03;;;19.60;;
21639;SDS011;10981;45.462;10.974;2024-03-23T05:15:40;37.70;;;19.40;;
21639;SDS011;10981;45.462;10.974;2024-03-23T05:18:07;39.05;;;18.30;;
21639;SDS011;10981;45.462;10.974;2024-03-23T05:20:35;37.63;;;17.60;;
21639;SDS011;10981;45.462;10.974;2024-03-23T05:23:03;42.10;;;19.77;;
21639;SDS011;10981;45.462;10.974;2024-03-23T05:25:30;39.47;;;19.38;;
21639;SDS011;10981;45.462;10.974;2024-03-23T05:27:57;39.70;;;19.98;;
21639;SDS011;10981;45.462;10.974;2024-03-23T05:30:24;42.42;;;20.05;;
21639;SDS011;10981;45.462;10.974;2024-03-23T05:32:51;47.50;;;20.52;;
21639;SDS011;10981;45.462;10.974;2024-03-23T05:35:19;42.88;;;19.75;;
21639;SDS011;10981;45.462;10.974;2024-03-23T05:37:46;43.03;;;19.85;;
21639;SDS011;10981;45.462;10.974;2024-03-23T05:40:13;39.17;;;18.60;;
21639;SDS011;10981;45.462;10.974;2024-03-23T05:42:41;37.75;;;19.88;;
21639;SDS011;10981;45.462;10.974;2024-03-23T05:45:09;41.63;;;20.77;;
21639;SDS011;10981;45.462;10.974;2024-03-23T05:47:39;41.47;;;20.48;;
21639;SDS011;10981;45.462;10.974;2024-03-23T05:50:06;39.85;;;20.60;;
21639;SDS011;10981;45.462;10.974;2024-03-23T05:52:36;43.30;;;19.48;;
21639;SDS011;10981;45.462;10.974;2024-03-23T05:55:03;37.10;;;17.58;;
21639;SDS011;10981;45.462;10.974;2024-03-23T05:57:31;35.67;;;18.70;;
21639;SDS011;10981;45.462;10.974;2024-03-23T05:59:58;40.63;;;18.45;;
21639;SDS011;10981;45.462;10.974;2024-03-23T06:02:25;41.78;;;19.35;;
21639;SDS011;10981;45.462;10.974;2024-03-23T06:04:52;40.13;;;18.52;;
21639;SDS011;10981;45.462;10.974;2024-03-23T06:07:19;42.55;;;19.10;;
21639;SDS011;10981;45.462;10.974;2024-03-23T06:09:47;39.08;;;18.40;;
21639;SDS011;10981;45.462;10.974;2024-03-23T06:12:17;42.85;;;19.27;;
21639;SDS011;10981;45.462;10.974;2024-03-23T06:14:44;45.55;;;19.58;;
21639;SDS011;10981;45.462;10.974;2024-03-23T06:17:11;42.30;;;18.13;;
21639;SDS011;10981;45.462;10.974;2024-03-23T06:19:39;38.03;;;18.08;;
21639;SDS011;10981;45.462;10.974;2024-03-23T06:22:06;35.60;;;17.80;;
21639;SDS011;10981;45.462;10.974;2024-03-23T06:24:34;41.83;;;19.85;;
21639;SDS011;10981;45.462;10.974;2024-03-23T06:27:01;39.20;;;17.05;;
21639;SDS011;10981;45.462;10.974;2024-03-23T06:29:29;38.10;;;18.98;;
21639;SDS011;10981;45.462;10.974;2024-03-23T06:31:56;39.38;;;17.40;;
21639;SDS011;10981;45.462;10.974;2024-03-23T06:34:24;34.97;;;18.02;;
21639;SDS011;10981;45.462;10.974;2024-03-23T06:36:51;40.22;;;17.67;;
21639;SDS011;10981;45.462;10.974;2024-03-23T06:39:18;40.40;;;18.52;;
21639;SDS011;10981;45.462;10.974;2024-03-23T06:41:51;43.10;;;18.63;;
21639;SDS011;10981;45.462;10.974;2024-03-23T06:44:20;38.83;;;18.23;;
21639;SDS011;10981;45.462;10.974;2024-03-23T06:46:47;45.63;;;19.10;;
21639;SDS011;10981;45.462;10.974;2024-03-23T06:49:17;37.63;;;18.33;;
21639;SDS011;10981;45.462;10.974;2024-03-23T06:51:47;40.97;;;18.55;;
21639;SDS011;10981;45.462;10.974;2024-03-23T06:54:16;42.28;;;17.40;;
21639;SDS011;10981;45.462;10.974;2024-03-23T06:56:44;36.53;;;17.60;;
21639;SDS011;10981;45.462;10.974;2024-03-23T06:59:11;33.28;;;17.17;;
21639;SDS011;10981;45.462;10.974;2024-03-23T07:01:38;34.08;;;18.10;;
21639;SDS011;10981;45.462;10.974;2024-03-23T07:04:06;31.90;;;16.48;;
21639;SDS011;10981;45.462;10.974;2024-03-23T07:06:33;40.47;;;18.02;;
21639;SDS011;10981;45.462;10.974;2024-03-23T07:09:00;45.03;;;19.10;;
21639;SDS011;10981;45.462;10.974;2024-03-23T07:11:27;40.30;;;18.40;;
21639;SDS011;10981;45.462;10.974;2024-03-23T07:13:54;41.03;;;17.85;;
21639;SDS011;10981;45.462;10.974;2024-03-23T07:16:22;31.58;;;18.48;;
21639;SDS011;10981;45.462;10.974;2024-03-23T07:18:50;34.08;;;16.90;;
21639;SDS011;10981;45.462;10.974;2024-03-23T07:21:17;33.83;;;17.33;;
21639;SDS011;10981;45.462;10.974;2024-03-23T07:23:44;30.75;;;17.20;;
21639;SDS011;10981;45.462;10.974;2024-03-23T07:26:12;32.97;;;19.10;;
21639;SDS011;10981;45.462;10.974;2024-03-23T07:28:39;31.23;;;18.30;;
21639;SDS011;10981;45.462;10.974;2024-03-23T07:31:11;31.13;;;17.98;;
21639;SDS011;10981;45.462;10.974;2024-03-23T07:33:45;30.70;;;16.25;;
21639;SDS011;10981;45.462;10.974;2024-03-23T07:36:14;32.75;;;17.35;;
21639;SDS011;10981;45.462;10.974;2024-03-23T07:38:41;31.52;;;16.38;;
21639;SDS011;10981;45.462;10.974;2024-03-23T07:41:12;32.28;;;16.08;;
21639;SDS011;10981;45.462;10.974;2024-03-23T07:43:43;31.63;;;16.73;;
21639;SDS011;10981;45.462;10.974;2024-03-23T07:46:11;37.13;;;16.27;;
21639;SDS011;10981;45.462;10.974;2024-03-23T07:48:39;31.35;;;16.85;;
21639;SDS011;10981;45.462;10.974;2024-03-23T07:51:09;33.78;;;17.27;;
21639;SDS011;10981;45.462;10.974;2024-03-23T07:53:57;30.63;;;17.58;;
21639;SDS011;10981;45.462;10.974;2024-03-23T07:56:24;28.80;;;16.10;;
21639;SDS011;10981;45.462;10.974;2024-03-23T07:58:51;29.88;;;16.90;;
21639;SDS011;10981;45.462;10.974;2024-03-23T08:01:19;33.90;;;17.88;;
21639;SDS011;10981;45.462;10.974;2024-03-23T08:03:46;32.28;;;18.20;;
21639;SDS011;10981;45.462;10.974;2024-03-23T08:06:15;34.28;;;17.75;;
21639;SDS011;10981;45.462;10.974;2024-03-23T08:08:44;29.10;;;16.73;;
21639;SDS011;10981;45.462;10.974;2024-03-23T08:11:12;30.42;;;17.92;;
21639;SDS011;10981;45.462;10.974;2024-03-23T08:13:40;30.10;;;18.13;;
21639;SDS011;10981;45.462;10.974;2024-03-23T08:16:08;30.38;;;18.40;;
21639;SDS011;10981;45.462;10.974;2024-03-23T08:18:36;32.67;;;20.30;;
21639;SDS011;10981;45.462;10.974;2024-03-23T08:21:03;38.47;;;21.02;;
21639;SDS011;10981;45.462;10.974;2024-03-23T08:23:32;32.90;;;19.08;;
21639;SDS011;10981;45.462;10.974;2024-03-23T08:26:06;35.72;;;20.88;;
21639;SDS011;10981;45.462;10.974;2024-03-23T08:28:35;38.78;;;21.60;;
21639;SDS011;10981;45.462;10.974;2024-03-23T08:31:03;36.17;;;21.38;;
21639;SDS011;10981;45.462;10.974;2024-03-23T08:33:33;30.67;;;19.95;;
21639;SDS011;10981;45.462;10.974;2024-03-23T08:36:04;45.72;;;22.10;;
21639;SDS011;10981;45.462;10.974;2024-03-23T08:38:33;33.77;;;20.80;;
21639;SDS011;10981;45.462;10.974;2024-03-23T08:41:10;43.78;;;21.20;;
21639;SDS011;10981;45.462;10.974;2024-03-23T08:43:39;40.13;;;20.50;;
21639;SDS011;10981;45.462;10.974;2024-03-23T08:46:26;38.47;;;21.33;;
21639;SDS011;10981;45.462;10.974;2024-03-23T08:48:53;35.63;;;20.70;;
21639;SDS011;10981;45.462;10.974;2024-03-23T08:51:20;37.65;;;21.05;;
21639;SDS011;10981;45.462;10.974;2024-03-23T08:53:48;38.35;;;20.88;;
21639;SDS011;10981;45.462;10.974;2024-03-23T08:56:15;39.05;;;22.02;;
21639;SDS011;10981;45.462;10.974;2024-03-23T08:58:43;37.67;;;20.70;;
21639;SDS011;10981;45.462;10.974;2024-03-23T09:01:11;39.08;;;22.08;;
21639;SDS011;10981;45.462;10.974;2024-03-23T09:03:39;38.53;;;21.13;;
21639;SDS011;10981;45.462;10.974;2024-03-23T09:06:10;40.72;;;21.50;;
21639;SDS011;10981;45.462;10.974;2024-03-23T09:08:39;39.40;;;23.13;;
21639;SDS011;10981;45.462;10.974;2024-03-23T09:11:07;36.28;;;21.17;;
21639;SDS011;10981;45.462;10.974;2024-03-23T09:13:36;40.58;;;20.67;;
21639;SDS011;10981;45.462;10.974;2024-03-23T09:16:05;40.03;;;21.48;;
21639;SDS011;10981;45.462;10.974;2024-03-23T09:18:33;34.58;;;19.85;;
21639;SDS011;10981;45.462;10.974;2024-03-23T09:21:11;38.25;;;21.88;;
21639;SDS011;10981;45.462;10.974;2024-03-23T09:23:44;40.65;;;22.08;;
21639;SDS011;10981;45.462;10.974;2024-03-23T09:26:12;38.13;;;21.20;;
21639;SDS011;10981;45.462;10.974;2024-03-23T09:28:39;38.45;;;21.80;;
21639;SDS011;10981;45.462;10.974;2024-03-23T09:31:07;38.40;;;20.98;;
21639;SDS011;10981;45.462;10.974;2024-03-23T09:33:40;42.88;;;21.20;;
21639;SDS011;10981;45.462;10.974;2024-03-23T09:36:10;39.97;;;21.80;;
21639;SDS011;10981;45.462;10.974;2024-03-23T09:38:38;36.65;;;21.20;;
21639;SDS011;10981;45.462;10.974;2024-03-23T09:41:08;37.13;;;19.73;;
21639;SDS011;10981;45.462;10.974;2024-03-23T09:43:36;34.63;;;19.02;;
21639;SDS011;10981;45.462;10.974;2024-03-23T09:46:03;37.20;;;20.48;;
21639;SDS011;10981;45.462;10.974;2024-03-23T09:48:31;37.90;;;20.48;;
21639;SDS011;10981;45.462;10.974;2024-03-23T09:50:59;34.35;;;20.27;;
21639;SDS011;10981;45.462;10.974;2024-03-23T09:53:26;35.63;;;20.85;;
21639;SDS011;10981;45.462;10.974;2024-03-23T09:55:53;36.55;;;20.63;;
21639;SDS011;10981;45.462;10.974;2024-03-23T09:58:23;40.92;;;20.63;;
21639;SDS011;10981;45.462;10.974;2024-03-23T10:00:50;41.22;;;21.10;;
21639;SDS011;10981;45.462;10.974;2024-03-23T10:03:17;38.45;;;20.95;;
21639;SDS011;10981;45.462;10.974;2024-03-23T10:05:45;40.47;;;22.30;;
21639;SDS011;10981;45.462;10.974;2024-03-23T10:10:45;39.42;;;23.33;;
21639;SDS011;10981;45.462;10.974;2024-03-23T10:13:25;41.33;;;23.25;;
21639;SDS011;10981;45.462;10.974;2024-03-23T10:15:55;41.70;;;22.65;;
21639;SDS011;10981;45.462;10.974;2024-03-23T10:18:24;40.28;;;22.67;;
21639;SDS011;10981;45.462;10.974;2024-03-23T10:23:35;43.33;;;22.95;;
21639;SDS011;10981;45.462;10.974;2024-03-23T10:26:14;42.97;;;22.92;;
21639;SDS011;10981;45.462;10.974;2024-03-23T10:28:52;39.47;;;22.58;;
21639;SDS011;10981;45.462;10.974;2024-03-23T10:31:34;40.17;;;22.83;;
21639;SDS011;10981;45.462;10.974;2024-03-23T10:34:02;43.88;;;23.27;;
21639;SDS011;10981;45.462;10.974;2024-03-23T10:36:30;42.63;;;24.15;;
21639;SDS011;10981;45.462;10.974;2024-03-23T10:38:58;41.95;;;21.77;;
21639;SDS011;10981;45.462;10.974;2024-03-23T10:41:29;42.08;;;23.90;;
21639;SDS011;10981;45.462;10.974;2024-03-23T10:43:59;41.15;;;24.50;;
21639;SDS011;10981;45.462;10.974;2024-03-23T10:46:28;39.35;;;22.23;;
21639;SDS011;10981;45.462;10.974;2024-03-23T10:48:56;47.70;;;23.50;;
21639;SDS011;10981;45.462;10.974;2024-03-23T10:51:24;39.42;;;21.83;;
21639;SDS011;10981;45.462;10.974;2024-03-23T10:53:52;41.50;;;22.42;;
21639;SDS011;10981;45.462;10.974;2024-03-23T10:56:21;44.97;;;23.65;;
21639;SDS011;10981;45.462;10.974;2024-03-23T10:58:49;44.05;;;23.88;;
21639;SDS011;10981;45.462;10.974;2024-03-23T11:01:17;42.13;;;22.90;;
21639;SDS011;10981;45.462;10.974;2024-03-23T11:03:45;41.60;;;23.08;;
21639;SDS011;10981;45.462;10.974;2024-03-23T11:15:05;36.45;;;18.95;;
21639;SDS011;10981;45.462;10.974;2024-03-23T11:17:38;31.40;;;17.73;;
21639;SDS011;10981;45.462;10.974;2024-03-23T11:20:05;33.38;;;19.85;;
21639;SDS011;10981;45.462;10.974;2024-03-23T11:22:45;36.83;;;20.60;;
21639;SDS011;10981;45.462;10.974;2024-03-23T11:27:48;33.20;;;18.83;;
21639;SDS011;10981;45.462;10.974;2024-03-23T11:30:16;35.55;;;19.88;;
21639;SDS011;10981;45.462;10.974;2024-03-23T11:32:46;31.73;;;18.20;;
21639;SDS011;10981;45.462;10.974;2024-03-23T11:40:34;37.28;;;20.38;;
21639;SDS011;10981;45.462;10.974;2024-03-23T11:43:10;34.30;;;18.10;;
21639;SDS011;10981;45.462;10.974;2024-03-23T11:45:39;27.67;;;17.85;;
21639;SDS011;10981;45.462;10.974;2024-03-23T11:48:21;31.58;;;17.52;;
21639;SDS011;10981;45.462;10.974;2024-03-23T11:50:50;28.35;;;17.17;;
21639;SDS011;10981;45.462;10.974;2024-03-23T11:53:21;30.40;;;18.35;;
21639;SDS011;10981;45.462;10.974;2024-03-23T11:55:56;28.80;;;16.92;;
21639;SDS011;10981;45.462;10.974;2024-03-23T11:58:25;33.50;;;18.30;;
21639;SDS011;10981;45.462;10.974;2024-03-23T12:00:56;26.83;;;16.17;;
21639;SDS011;10981;45.462;10.974;2024-03-23T12:03:28;27.27;;;15.73;;
21639;SDS011;10981;45.462;10.974;2024-03-23T12:05:57;26.92;;;17.23;;
21639;SDS011;10981;45.462;10.974;2024-03-23T12:08:32;25.17;;;15.75;;
21639;SDS011;10981;45.462;10.974;2024-03-23T12:11:07;26.80;;;16.02;;
21639;SDS011;10981;45.462;10.974;2024-03-23T12:13:38;26.67;;;16.02;;
21639;SDS011;10981;45.462;10.974;2024-03-23T12:16:18;25.83;;;17.15;;
21639;SDS011;10981;45.462;10.974;2024-03-23T12:18:50;26.67;;;16.27;;
21639;SDS011;10981;45.462;10.974;2024-03-23T12:21:17;27.08;;;17.23;;
21639;SDS011;10981;45.462;10.974;2024-03-23T12:23:45;27.92;;;17.45;;
21639;SDS011;10981;45.462;10.974;2024-03-23T12:26:13;28.40;;;17.50;;
21639;SDS011;10981;45.462;10.974;2024-03-23T12:28:40;24.55;;;16.08;;
21639;SDS011;10981;45.462;10.974;2024-03-23T12:31:10;30.55;;;18.13;;
21639;SDS011;10981;45.462;10.974;2024-03-23T12:33:37;29.15;;;17.13;;
21639;SDS011;10981;45.462;10.974;2024-03-23T12:36:07;30.75;;;16.92;;
21639;SDS011;10981;45.462;10.974;2024-03-23T12:38:35;35.80;;;18.55;;
21639;SDS011;10981;45.462;10.974;2024-03-23T12:41:02;29.92;;;17.75;;
21639;SDS011;10981;45.462;10.974;2024-03-23T12:43:31;30.77;;;16.83;;
21639;SDS011;10981;45.462;10.974;2024-03-23T12:45:58;29.50;;;18.92;;
21639;SDS011;10981;45.462;10.974;2024-03-23T12:48:25;31.00;;;18.42;;
21639;SDS011;10981;45.462;10.974;2024-03-23T12:50:56;28.52;;;17.75;;
21639;SDS011;10981;45.462;10.974;2024-03-23T12:53:23;36.45;;;17.98;;
21639;SDS011;10981;45.462;10.974;2024-03-23T12:55:50;32.72;;;19.20;;
21639;SDS011;10981;45.462;10.974;2024-03-23T12:58:18;29.10;;;17.33;;
21639;SDS011;10981;45.462;10.974;2024-03-23T13:00:45;30.33;;;19.52;;
21639;SDS011;10981;45.462;10.974;2024-03-23T13:03:13;33.83;;;18.85;;
21639;SDS011;10981;45.462;10.974;2024-03-23T13:05:41;30.17;;;20.33;;
21639;SDS011;10981;45.462;10.974;2024-03-23T13:08:09;27.27;;;16.60;;
21639;SDS011;10981;45.462;10.974;2024-03-23T13:10:36;26.90;;;17.23;;
21639;SDS011;10981;45.462;10.974;2024-03-23T13:13:03;27.17;;;16.83;;
21639;SDS011;10981;45.462;10.974;2024-03-23T13:15:30;27.40;;;14.52;;
21639;SDS011;10981;45.462;10.974;2024-03-23T13:17:57;22.13;;;14.15;;
21639;SDS011;10981;45.462;10.974;2024-03-23T13:20:25;23.10;;;13.43;;
21639;SDS011;10981;45.462;10.974;2024-03-23T13:22:52;20.75;;;12.60;;
21639;SDS011;10981;45.462;10.974;2024-03-23T13:25:20;20.58;;;12.13;;
21639;SDS011;10981;45.462;10.974;2024-03-23T13:27:47;24.52;;;13.88;;
21639;SDS011;10981;45.462;10.974;2024-03-23T13:30:14;21.40;;;13.02;;
21639;SDS011;10981;45.462;10.974;2024-03-23T13:32:44;25.25;;;14.15;;
21639;SDS011;10981;45.462;10.974;2024-03-23T13:35:11;23.08;;;15.35;;
21639;SDS011;10981;45.462;10.974;2024-03-23T13:37:39;24.95;;;16.30;;
21639;SDS011;10981;45.462;10.974;2024-03-23T13:40:07;26.70;;;17.23;;
21639;SDS011;10981;45.462;10.974;2024-03-23T13:42:35;24.77;;;15.77;;
21639;SDS011;10981;45.462;10.974;2024-03-23T13:45:03;26.92;;;16.05;;
21639;SDS011;10981;45.462;10.974;2024-03-23T13:47:30;26.20;;;15.60;;
21639;SDS011;10981;45.462;10.974;2024-03-23T13:49:58;27.38;;;17.38;;
21639;SDS011;10981;45.462;10.974;2024-03-23T13:52:25;32.05;;;16.88;;
21639;SDS011;10981;45.462;10.974;2024-03-23T13:54:53;27.60;;;17.10;;
21639;SDS011;10981;45.462;10.974;2024-03-23T13:57:22;32.70;;;17.98;;
21639;SDS011;10981;45.462;10.974;2024-03-23T13:59:52;30.95;;;18.88;;
21639;SDS011;10981;45.462;10.974;2024-03-23T14:02:19;26.10;;;16.40;;
21639;SDS011;10981;45.462;10.974;2024-03-23T14:04:46;30.67;;;18.05;;
21639;SDS011;10981;45.462;10.974;2024-03-23T14:07:14;29.50;;;17.15;;
21639;SDS011;10981;45.462;10.974;2024-03-23T14:09:43;33.38;;;16.38;;
21639;SDS011;10981;45.462;10.974;2024-03-23T14:12:10;29.35;;;18.33;;
21639;SDS011;10981;45.462;10.974;2024-03-23T14:14:37;30.58;;;19.00;;
21639;SDS011;10981;45.462;10.974;2024-03-23T14:17:04;32.90;;;19.25;;
21639;SDS011;10981;45.462;10.974;2024-03-23T14:19:32;31.00;;;18.75;;
21639;SDS011;10981;45.462;10.974;2024-03-23T14:21:59;29.70;;;19.05;;
21639;SDS011;10981;45.462;10.974;2024-03-23T14:24:26;34.70;;;20.20;;
21639;SDS011;10981;45.462;10.974;2024-03-23T14:26:54;34.65;;;19.98;;
21639;SDS011;10981;45.462;10.974;2024-03-23T14:29:21;33.33;;;19.10;;
21639;SDS011;10981;45.462;10.974;2024-03-23T14:31:48;32.85;;;19.35;;
21639;SDS011;10981;45.462;10.974;2024-03-23T14:34:18;31.90;;;19.40;;
21639;SDS011;10981;45.462;10.974;2024-03-23T14:36:45;32.35;;;20.02;;
21639;SDS011;10981;45.462;10.974;2024-03-23T14:39:12;26.65;;;18.27;;
21639;SDS011;10981;45.462;10.974;2024-03-23T14:41:41;30.20;;;19.17;;
21639;SDS011;10981;45.462;10.974;2024-03-23T14:44:08;39.08;;;20.45;;
21639;SDS011;10981;45.462;10.974;2024-03-23T14:46:35;28.45;;;19.15;;
21639;SDS011;10981;45.462;10.974;2024-03-23T14:49:02;29.98;;;19.15;;
21639;SDS011;10981;45.462;10.974;2024-03-23T14:51:30;31.48;;;18.63;;
21639;SDS011;10981;45.462;10.974;2024-03-23T14:53:58;34.83;;;19.15;;
21639;SDS011;10981;45.462;10.974;2024-03-23T14:56:26;34.33;;;20.73;;
21639;SDS011;10981;45.462;10.974;2024-03-23T14:58:53;31.90;;;19.40;;
21639;SDS011;10981;45.462;10.974;2024-03-23T15:01:21;37.05;;;20.15;;
21639;SDS011;10981;45.462;10.974;2024-03-23T15:03:49;33.65;;;18.77;;
21639;SDS011;10981;45.462;10.974;2024-03-23T15:06:19;34.72;;;19.92;;
21639;SDS011;10981;45.462;10.974;2024-03-23T15:08:46;29.33;;;19.05;;
21639;SDS011;10981;45.462;10.974;2024-03-23T15:11:13;35.28;;;19.85;;
21639;SDS011;10981;45.462;10.974;2024-03-23T15:13:40;32.15;;;18.85;;
21639;SDS011;10981;45.462;10.974;2024-03-23T15:16:08;30.85;;;18.33;;
21639;SDS011;10981;45.462;10.974;2024-03-23T15:18:35;32.65;;;19.15;;
21639;SDS011;10981;45.462;10.974;2024-03-23T15:21:03;30.52;;;19.10;;
21639;SDS011;10981;45.462;10.974;2024-03-23T15:23:38;36.53;;;19.90;;
21639;SDS011;10981;45.462;10.974;2024-03-23T15:26:05;33.92;;;19.95;;
21639;SDS011;10981;45.462;10.974;2024-03-23T15:28:32;36.00;;;19.88;;
21639;SDS011;10981;45.462;10.974;2024-03-23T15:31:18;33.33;;;20.77;;